sensor_id;sensor_type;location;lat;lon;timestamp;pressure;altitude;pressure_sealevel;temperature;humidity
74798;BME280;63326;45.088;7.658;2023-09-30T00:00:06;99267.94;;;14.87;100.00
74798;BME280;63326;45.088;7.658;2023-09-30T00:02:38;99276.44;;;14.77;100.00
74798;BME280;63326;45.088;7.658;2023-09-30T00:05:05;99319.06;;;14.81;100.00
74798;BME280;63326;45.088;7.658;2023-09-30T00:07:32;99335.75;;;14.92;100.00
74798;BME280;63326;45.088;7.658;2023-09-30T00:09:59;99317.81;;;14.77;100.00
74798;BME280;63326;45.088;7.658;2023-09-30T00:12:26;99318.84;;;14.76;100.00
74798;BME280;63326;45.088;7.658;2023-09-30T00:14:54;99273.94;;;14.47;100.00
74798;BME280;63326;45.088;7.658;2023-09-30T00:17:21;99281.63;;;14.50;100.00
74798;BME280;63326;45.088;7.658;2023-09-30T00:19:48;99289.16;;;14.55;100.00
74798;BME280;63326;45.088;7.658;2023-09-30T00:22:14;99310.47;;;14.65;100.00
74798;BME280;63326;45.088;7.658;2023-09-30T00:24:41;99311.22;;;14.59;100.00
74798;BME280;63326;45.088;7.658;2023-09-30T00:27:08;99279.22;;;14.27;100.00
74798;BME280;63326;45.088;7.658;2023-09-30T00:29:35;99318.41;;;14.45;100.00
74798;BME280;63326;45.088;7.658;2023-09-30T00:32:02;99304.16;;;14.30;100.00
74798;BME280;63326;45.088;7.658;2023-09-30T00:34:36;99325.88;;;14.43;100.00
74798;BME280;63326;45.088;7.658;2023-09-30T00:37:04;99343.84;;;14.57;100.00
74798;BME280;63326;45.088;7.658;2023-09-30T00:39:32;99289.13;;;14.20;100.00
74798;BME280;63326;45.088;7.658;2023-09-30T00:41:59;99349.88;;;14.59;100.00
74798;BME280;63326;45.088;7.658;2023-09-30T00:44:27;99321.97;;;14.52;100.00
74798;BME280;63326;45.088;7.658;2023-09-30T00:46:54;99303.41;;;14.42;100.00
74798;BME280;63326;45.088;7.658;2023-09-30T00:49:26;99328.38;;;14.44;100.00
74798;BME280;63326;45.088;7.658;2023-09-30T00:51:54;99353.63;;;14.58;100.00
74798;BME280;63326;45.088;7.658;2023-09-30T00:54:23;99297.19;;;14.14;100.00
74798;BME280;63326;45.088;7.658;2023-09-30T00:56:52;99285.50;;;14.07;100.00
74798;BME280;63326;45.088;7.658;2023-09-30T00:59:22;99314.03;;;14.16;100.00
74798;BME280;63326;45.088;7.658;2023-09-30T01:01:49;99307.34;;;14.12;100.00
74798;BME280;63326;45.088;7.658;2023-09-30T01:04:17;99295.41;;;13.99;100.00
74798;BME280;63326;45.088;7.658;2023-09-30T01:06:45;99283.84;;;13.84;100.00
74798;BME280;63326;45.088;7.658;2023-09-30T01:09:11;99289.22;;;14.06;100.00
74798;BME280;63326;45.088;7.658;2023-09-30T01:11:40;99300.38;;;14.24;100.00
74798;BME280;63326;45.088;7.658;2023-09-30T01:16:54;99336.13;;;14.26;100.00
74798;BME280;63326;45.088;7.658;2023-09-30T01:19:21;99289.75;;;13.94;100.00
74798;BME280;63326;45.088;7.658;2023-09-30T01:21:57;99299.75;;;14.01;100.00
74798;BME280;63326;45.088;7.658;2023-09-30T01:24:29;99281.53;;;13.81;100.00
74798;BME280;63326;45.088;7.658;2023-09-30T01:26:57;99329.31;;;14.02;100.00
74798;BME280;63326;45.088;7.658;2023-09-30T01:29:24;99281.22;;;13.69;100.00
74798;BME280;63326;45.088;7.658;2023-09-30T01:31:55;99272.09;;;13.70;100.00
74798;BME280;63326;45.088;7.658;2023-09-30T01:34:22;99313.09;;;14.02;100.00
74798;BME280;63326;45.088;7.658;2023-09-30T01:36:49;99297.78;;;13.88;100.00
74798;BME280;63326;45.088;7.658;2023-09-30T01:39:16;99299.84;;;13.86;100.00
74798;BME280;63326;45.088;7.658;2023-09-30T01:41:43;99254.75;;;13.58;100.00
74798;BME280;63326;45.088;7.658;2023-09-30T01:44:09;99237.69;;;13.51;100.00
74798;BME280;63326;45.088;7.658;2023-09-30T01:46:36;99276.28;;;13.73;100.00
74798;BME280;63326;45.088;7.658;2023-09-30T01:49:03;99245.38;;;13.54;100.00
74798;BME280;63326;45.088;7.658;2023-09-30T01:51:30;99272.09;;;13.70;100.00
74798;BME280;63326;45.088;7.658;2023-09-30T01:53:57;99300.50;;;13.88;100.00
74798;BME280;63326;45.088;7.658;2023-09-30T01:56:25;99249.88;;;13.47;100.00
74798;BME280;63326;45.088;7.658;2023-09-30T01:58:52;99319.00;;;13.91;100.00
74798;BME280;63326;45.088;7.658;2023-09-30T02:01:20;99290.34;;;13.68;100.00
74798;BME280;63326;45.088;7.658;2023-09-30T02:03:47;99328.84;;;13.98;100.00
74798;BME280;63326;45.088;7.658;2023-09-30T02:06:14;99333.84;;;14.02;100.00
74798;BME280;63326;45.088;7.658;2023-09-30T02:08:43;99319.78;;;14.06;100.00
74798;BME280;63326;45.088;7.658;2023-09-30T02:11:11;99266.06;;;13.68;100.00
74798;BME280;63326;45.088;7.658;2023-09-30T02:13:41;99257.19;;;13.75;100.00
74798;BME280;63326;45.088;7.658;2023-09-30T02:16:11;99268.81;;;13.75;100.00
74798;BME280;63326;45.088;7.658;2023-09-30T02:18:38;99260.84;;;13.67;100.00
74798;BME280;63326;45.088;7.658;2023-09-30T02:21:07;99279.88;;;13.59;100.00
74798;BME280;63326;45.088;7.658;2023-09-30T02:23:37;99245.31;;;13.48;100.00
74798;BME280;63326;45.088;7.658;2023-09-30T02:26:04;99264.38;;;13.46;100.00
74798;BME280;63326;45.088;7.658;2023-09-30T02:28:31;99245.16;;;13.34;100.00
74798;BME280;63326;45.088;7.658;2023-09-30T02:31:00;99236.72;;;13.23;100.00
74798;BME280;63326;45.088;7.658;2023-09-30T02:33:27;99245.78;;;13.15;100.00
74798;BME280;63326;45.088;7.658;2023-09-30T02:35:55;99286.25;;;13.36;100.00
74798;BME280;63326;45.088;7.658;2023-09-30T02:38:24;99258.03;;;13.18;100.00
74798;BME280;63326;45.088;7.658;2023-09-30T02:40:54;99263.72;;;13.23;100.00
74798;BME280;63326;45.088;7.658;2023-09-30T02:43:21;99257.47;;;13.22;100.00
74798;BME280;63326;45.088;7.658;2023-09-30T02:45:48;99251.56;;;13.12;100.00
74798;BME280;63326;45.088;7.658;2023-09-30T02:48:16;99277.72;;;13.33;100.00
74798;BME280;63326;45.088;7.658;2023-09-30T02:50:43;99226.56;;;13.03;100.00
74798;BME280;63326;45.088;7.658;2023-09-30T02:53:12;99274.63;;;13.36;100.00
74798;BME280;63326;45.088;7.658;2023-09-30T02:55:43;99328.09;;;13.62;100.00
74798;BME280;63326;45.088;7.658;2023-09-30T02:58:10;99267.63;;;13.20;100.00
74798;BME280;63326;45.088;7.658;2023-09-30T03:00:37;99293.59;;;13.43;100.00
74798;BME280;63326;45.088;7.658;2023-09-30T03:03:04;99264.53;;;13.23;100.00
74798;BME280;63326;45.088;7.658;2023-09-30T03:05:31;99261.72;;;13.31;100.00
74798;BME280;63326;45.088;7.658;2023-09-30T03:08:01;99261.06;;;13.29;100.00
74798;BME280;63326;45.088;7.658;2023-09-30T03:10:31;99240.97;;;13.10;100.00
74798;BME280;63326;45.088;7.658;2023-09-30T03:12:57;99294.34;;;13.51;100.00
74798;BME280;63326;45.088;7.658;2023-09-30T03:15:30;99280.03;;;13.36;100.00
74798;BME280;63326;45.088;7.658;2023-09-30T03:17:58;99303.00;;;13.47;100.00
74798;BME280;63326;45.088;7.658;2023-09-30T03:20:26;99308.47;;;13.53;100.00
74798;BME280;63326;45.088;7.658;2023-09-30T03:22:53;99265.75;;;13.21;100.00
74798;BME280;63326;45.088;7.658;2023-09-30T03:25:20;99285.69;;;13.41;100.00
74798;BME280;63326;45.088;7.658;2023-09-30T03:27:47;99246.59;;;13.16;100.00
74798;BME280;63326;45.088;7.658;2023-09-30T03:30:16;99258.34;;;13.08;100.00
74798;BME280;63326;45.088;7.658;2023-09-30T03:32:43;99258.22;;;13.16;100.00
74798;BME280;63326;45.088;7.658;2023-09-30T03:35:11;99233.72;;;13.11;100.00
74798;BME280;63326;45.088;7.658;2023-09-30T03:37:41;99267.63;;;13.20;100.00
74798;BME280;63326;45.088;7.658;2023-09-30T03:40:08;99253.13;;;13.06;100.00
74798;BME280;63326;45.088;7.658;2023-09-30T03:42:41;99272.16;;;13.20;100.00
74798;BME280;63326;45.088;7.658;2023-09-30T03:45:11;99310.13;;;13.39;100.00
74798;BME280;63326;45.088;7.658;2023-09-30T03:47:41;99252.69;;;13.03;100.00
74798;BME280;63326;45.088;7.658;2023-09-30T03:50:08;99237.94;;;12.84;100.00
74798;BME280;63326;45.088;7.658;2023-09-30T03:52:43;99292.47;;;13.37;100.00
74798;BME280;63326;45.088;7.658;2023-09-30T03:55:17;99264.34;;;13.25;100.00
74798;BME280;63326;45.088;7.658;2023-09-30T03:57:48;99315.97;;;13.58;100.00
74798;BME280;63326;45.088;7.658;2023-09-30T04:00:15;99296.84;;;13.38;100.00
74798;BME280;63326;45.088;7.658;2023-09-30T04:02:47;99249.81;;;13.04;100.00
74798;BME280;63326;45.088;7.658;2023-09-30T04:05:20;99264.56;;;13.08;100.00
74798;BME280;63326;45.088;7.658;2023-09-30T04:07:52;99266.91;;;13.11;100.00
74798;BME280;63326;45.088;7.658;2023-09-30T04:10:19;99289.75;;;13.16;100.00
74798;BME280;63326;45.088;7.658;2023-09-30T04:12:47;99251.69;;;12.89;100.00
74798;BME280;63326;45.088;7.658;2023-09-30T04:15:14;99318.81;;;13.35;100.00
74798;BME280;63326;45.088;7.658;2023-09-30T04:17:42;99234.63;;;12.67;100.00
74798;BME280;63326;45.088;7.658;2023-09-30T04:20:09;99260.81;;;12.73;100.00
74798;BME280;63326;45.088;7.658;2023-09-30T04:22:38;99275.00;;;12.97;100.00
74798;BME280;63326;45.088;7.658;2023-09-30T04:25:05;99303.53;;;13.06;100.00
74798;BME280;63326;45.088;7.658;2023-09-30T04:27:35;99234.44;;;12.69;100.00
74798;BME280;63326;45.088;7.658;2023-09-30T04:30:03;99244.56;;;12.81;100.00
74798;BME280;63326;45.088;7.658;2023-09-30T04:32:36;99291.38;;;13.10;100.00
74798;BME280;63326;45.088;7.658;2023-09-30T04:35:03;99286.97;;;13.09;100.00
74798;BME280;63326;45.088;7.658;2023-09-30T04:37:31;99289.81;;;13.01;100.00
74798;BME280;63326;45.088;7.658;2023-09-30T04:39:57;99259.22;;;12.79;100.00
74798;BME280;63326;45.088;7.658;2023-09-30T04:42:25;99246.28;;;12.89;100.00
74798;BME280;63326;45.088;7.658;2023-09-30T04:44:52;99247.59;;;12.93;100.00
74798;BME280;63326;45.088;7.658;2023-09-30T04:47:21;99213.78;;;12.76;100.00
74798;BME280;63326;45.088;7.658;2023-09-30T04:49:48;99309.44;;;13.31;100.00
74798;BME280;63326;45.088;7.658;2023-09-30T04:52:15;99235.91;;;12.86;100.00
74798;BME280;63326;45.088;7.658;2023-09-30T04:54:41;99256.22;;;12.89;100.00
74798;BME280;63326;45.088;7.658;2023-09-30T04:57:08;99260.78;;;12.88;100.00
74798;BME280;63326;45.088;7.658;2023-09-30T04:59:35;99233.03;;;12.58;100.00
74798;BME280;63326;45.088;7.658;2023-09-30T05:02:02;99237.13;;;12.69;100.00
74798;BME280;63326;45.088;7.658;2023-09-30T05:04:30;99286.25;;;13.00;100.00
74798;BME280;63326;45.088;7.658;2023-09-30T05:06:57;99273.81;;;12.84;100.00
74798;BME280;63326;45.088;7.658;2023-09-30T05:09:23;99250.44;;;12.55;100.00
74798;BME280;63326;45.088;7.658;2023-09-30T05:11:50;99268.81;;;12.67;100.00
74798;BME280;63326;45.088;7.658;2023-09-30T05:14:17;99307.28;;;12.90;100.00
74798;BME280;63326;45.088;7.658;2023-09-30T05:16:44;99253.31;;;12.54;100.00
74798;BME280;63326;45.088;7.658;2023-09-30T05:19:11;99285.72;;;12.75;100.00
74798;BME280;63326;45.088;7.658;2023-09-30T05:21:38;99235.31;;;12.40;100.00
74798;BME280;63326;45.088;7.658;2023-09-30T05:24:05;99291.56;;;12.79;100.00
74798;BME280;63326;45.088;7.658;2023-09-30T05:26:32;99314.34;;;12.91;100.00
74798;BME280;63326;45.088;7.658;2023-09-30T05:28:59;99266.06;;;12.60;100.00
74798;BME280;63326;45.088;7.658;2023-09-30T05:31:26;99260.00;;;12.58;100.00
74798;BME280;63326;45.088;7.658;2023-09-30T05:33:57;99305.59;;;12.89;100.00
74798;BME280;63326;45.088;7.658;2023-09-30T05:36:24;99298.66;;;12.80;100.00
74798;BME280;63326;45.088;7.658;2023-09-30T05:38:51;99280.72;;;12.72;100.00
74798;BME280;63326;45.088;7.658;2023-09-30T05:41:18;99292.03;;;12.82;100.00
74798;BME280;63326;45.088;7.658;2023-09-30T05:43:47;99246.63;;;12.65;100.00
74798;BME280;63326;45.088;7.658;2023-09-30T05:46:15;99281.16;;;12.91;100.00
74798;BME280;63326;45.088;7.658;2023-09-30T05:48:42;99284.94;;;13.11;100.00
74798;BME280;63326;45.088;7.658;2023-09-30T05:51:09;99244.47;;;12.90;100.00
74798;BME280;63326;45.088;7.658;2023-09-30T05:53:35;99279.06;;;13.22;100.00
74798;BME280;63326;45.088;7.658;2023-09-30T05:56:03;99236.56;;;13.09;100.00
74798;BME280;63326;45.088;7.658;2023-09-30T05:58:30;99262.56;;;13.32;100.00
74798;BME280;63326;45.088;7.658;2023-09-30T06:00:58;99271.25;;;13.49;100.00
74798;BME280;63326;45.088;7.658;2023-09-30T06:03:27;99284.06;;;13.83;100.00
74798;BME280;63326;45.088;7.658;2023-09-30T06:05:56;99281.16;;;13.84;100.00
74798;BME280;63326;45.088;7.658;2023-09-30T06:08:23;99270.81;;;13.66;100.00
74798;BME280;63326;45.088;7.658;2023-09-30T06:10:50;99319.69;;;13.99;100.00
74798;BME280;63326;45.088;7.658;2023-09-30T06:13:17;99301.53;;;13.87;100.00
74798;BME280;63326;45.088;7.658;2023-09-30T06:15:43;99277.00;;;13.82;100.00
74798;BME280;63326;45.088;7.658;2023-09-30T06:18:10;99290.47;;;14.03;100.00
74798;BME280;63326;45.088;7.658;2023-09-30T06:20:41;99323.59;;;14.18;100.00
74798;BME280;63326;45.088;7.658;2023-09-30T06:23:08;99300.63;;;14.29;100.00
74798;BME280;63326;45.088;7.658;2023-09-30T06:25:37;99348.63;;;14.55;100.00
74798;BME280;63326;45.088;7.658;2023-09-30T06:28:03;99278.78;;;14.24;100.00
74798;BME280;63326;45.088;7.658;2023-09-30T06:30:30;99275.47;;;14.28;100.00
74798;BME280;63326;45.088;7.658;2023-09-30T06:33:00;99290.50;;;14.38;100.00
74798;BME280;63326;45.088;7.658;2023-09-30T06:35:28;99311.69;;;14.62;100.00
74798;BME280;63326;45.088;7.658;2023-09-30T06:38:03;99306.94;;;14.71;100.00
74798;BME280;63326;45.088;7.658;2023-09-30T06:40:33;99289.97;;;14.83;100.00
74798;BME280;63326;45.088;7.658;2023-09-30T06:43:04;99373.69;;;15.46;100.00
74798;BME280;63326;45.088;7.658;2023-09-30T06:45:31;99313.72;;;15.36;100.00
74798;BME280;63326;45.088;7.658;2023-09-30T06:47:59;99321.50;;;15.65;100.00
74798;BME280;63326;45.088;7.658;2023-09-30T06:50:26;99305.47;;;15.70;100.00
74798;BME280;63326;45.088;7.658;2023-09-30T06:52:53;99257.19;;;15.87;100.00
74798;BME280;63326;45.088;7.658;2023-09-30T06:55:19;99298.28;;;17.02;100.00
74798;BME280;63326;45.088;7.658;2023-09-30T06:57:46;99290.22;;;18.03;97.18
74798;BME280;63326;45.088;7.658;2023-09-30T07:00:14;99362.13;;;19.37;87.45
74798;BME280;63326;45.088;7.658;2023-09-30T07:02:41;99321.16;;;20.04;80.39
74798;BME280;63326;45.088;7.658;2023-09-30T07:05:12;99371.81;;;21.00;76.81
74798;BME280;63326;45.088;7.658;2023-09-30T07:07:40;99333.19;;;22.00;67.37
74798;BME280;63326;45.088;7.658;2023-09-30T07:10:09;99355.13;;;23.28;60.15
74798;BME280;63326;45.088;7.658;2023-09-30T07:12:37;99321.88;;;22.80;61.74
74798;BME280;63326;45.088;7.658;2023-09-30T07:15:05;99388.13;;;23.77;60.95
74798;BME280;63326;45.088;7.658;2023-09-30T07:17:32;99339.94;;;24.13;57.34
74798;BME280;63326;45.088;7.658;2023-09-30T07:20:01;99329.97;;;23.75;58.08
74798;BME280;63326;45.088;7.658;2023-09-30T07:22:28;99339.16;;;24.49;55.70
74798;BME280;63326;45.088;7.658;2023-09-30T07:24:58;99352.53;;;25.83;50.16
74798;BME280;63326;45.088;7.658;2023-09-30T07:27:25;99378.50;;;26.38;47.19
74798;BME280;63326;45.088;7.658;2023-09-30T07:29:54;99403.28;;;27.24;46.06
74798;BME280;63326;45.088;7.658;2023-09-30T07:32:21;99363.66;;;26.90;46.63
74798;BME280;63326;45.088;7.658;2023-09-30T07:34:50;99410.13;;;27.52;45.65
74798;BME280;63326;45.088;7.658;2023-09-30T07:37:18;99355.72;;;27.63;44.28
74798;BME280;63326;45.088;7.658;2023-09-30T07:39:45;99352.91;;;27.73;42.87
74798;BME280;63326;45.088;7.658;2023-09-30T07:42:12;99359.69;;;27.42;44.38
74798;BME280;63326;45.088;7.658;2023-09-30T07:44:39;99379.13;;;28.20;41.58
74798;BME280;63326;45.088;7.658;2023-09-30T07:47:06;99364.69;;;28.67;40.66
74798;BME280;63326;45.088;7.658;2023-09-30T07:49:35;99359.28;;;28.86;40.97
74798;BME280;63326;45.088;7.658;2023-09-30T07:52:02;99354.66;;;29.53;39.67
74798;BME280;63326;45.088;7.658;2023-09-30T07:54:30;99387.81;;;30.01;38.86
74798;BME280;63326;45.088;7.658;2023-09-30T07:56:58;99354.41;;;30.81;35.99
74798;BME280;63326;45.088;7.658;2023-09-30T07:59:26;99373.69;;;31.19;34.87
74798;BME280;63326;45.088;7.658;2023-09-30T08:01:53;99362.41;;;30.50;35.93
74798;BME280;63326;45.088;7.658;2023-09-30T08:04:20;99374.56;;;29.02;38.78
74798;BME280;63326;45.088;7.658;2023-09-30T08:06:48;99371.50;;;28.07;40.99
74798;BME280;63326;45.088;7.658;2023-09-30T08:09:15;99361.09;;;27.34;42.12
74798;BME280;63326;45.088;7.658;2023-09-30T08:11:45;99415.56;;;28.22;42.00
74798;BME280;63326;45.088;7.658;2023-09-30T08:14:12;99360.91;;;28.87;39.87
74798;BME280;63326;45.088;7.658;2023-09-30T08:16:38;99377.34;;;29.98;37.37
74798;BME280;63326;45.088;7.658;2023-09-30T08:19:05;99376.22;;;30.18;37.59
74798;BME280;63326;45.088;7.658;2023-09-30T08:21:32;99377.69;;;28.96;38.87
74798;BME280;63326;45.088;7.658;2023-09-30T08:23:59;99421.56;;;29.02;39.53
74798;BME280;63326;45.088;7.658;2023-09-30T08:26:26;99386.97;;;29.34;38.96
74798;BME280;63326;45.088;7.658;2023-09-30T08:28:53;99387.84;;;29.05;38.64
74798;BME280;63326;45.088;7.658;2023-09-30T08:31:20;99400.56;;;29.54;38.88
74798;BME280;63326;45.088;7.658;2023-09-30T08:33:48;99404.94;;;30.03;37.69
74798;BME280;63326;45.088;7.658;2023-09-30T08:36:15;99424.47;;;31.88;34.25
74798;BME280;63326;45.088;7.658;2023-09-30T08:38:42;99402.50;;;33.57;30.38
74798;BME280;63326;45.088;7.658;2023-09-30T08:41:08;99403.91;;;32.39;31.53
74798;BME280;63326;45.088;7.658;2023-09-30T08:43:37;99413.38;;;30.87;34.39
74798;BME280;63326;45.088;7.658;2023-09-30T08:46:06;99376.97;;;29.38;36.81
74798;BME280;63326;45.088;7.658;2023-09-30T08:48:33;99385.66;;;30.17;35.83
74798;BME280;63326;45.088;7.658;2023-09-30T08:51:02;99428.66;;;30.66;36.28
74798;BME280;63326;45.088;7.658;2023-09-30T08:53:29;99416.88;;;28.35;39.70
74798;BME280;63326;45.088;7.658;2023-09-30T08:55:57;99421.25;;;26.96;42.57
74798;BME280;63326;45.088;7.658;2023-09-30T08:58:27;99401.16;;;28.30;40.73
74798;BME280;63326;45.088;7.658;2023-09-30T09:00:55;99399.72;;;28.38;39.56
74798;BME280;63326;45.088;7.658;2023-09-30T09:03:23;99404.44;;;29.05;38.28
74798;BME280;63326;45.088;7.658;2023-09-30T09:05:56;99417.72;;;28.74;38.92
74798;BME280;63326;45.088;7.658;2023-09-30T09:08:26;99440.81;;;30.89;35.00
74798;BME280;63326;45.088;7.658;2023-09-30T09:10:58;99442.28;;;28.32;39.91
74798;BME280;63326;45.088;7.658;2023-09-30T09:13:26;99394.53;;;28.99;38.72
74798;BME280;63326;45.088;7.658;2023-09-30T09:16:07;99432.88;;;25.80;46.01
74798;BME280;63326;45.088;7.658;2023-09-30T09:18:35;99431.88;;;27.59;42.51
74798;BME280;63326;45.088;7.658;2023-09-30T09:23:41;99409.16;;;25.16;47.68
74798;BME280;63326;45.088;7.658;2023-09-30T09:26:13;99389.94;;;25.16;48.43
74798;BME280;63326;45.088;7.658;2023-09-30T09:28:49;99362.75;;;25.87;46.68
74798;BME280;63326;45.088;7.658;2023-09-30T09:31:21;99383.50;;;26.31;46.00
74798;BME280;63326;45.088;7.658;2023-09-30T09:33:50;99321.94;;;27.32;41.83
74798;BME280;63326;45.088;7.658;2023-09-30T09:36:17;99437.19;;;27.20;43.44
74798;BME280;63326;45.088;7.658;2023-09-30T09:38:48;99376.06;;;25.43;46.34
74798;BME280;63326;45.088;7.658;2023-09-30T09:41:15;99438.03;;;27.30;43.98
74798;BME280;63326;45.088;7.658;2023-09-30T09:43:42;99375.59;;;28.53;40.72
74798;BME280;63326;45.088;7.658;2023-09-30T09:46:10;99409.16;;;27.82;41.35
74798;BME280;63326;45.088;7.658;2023-09-30T09:48:38;99391.19;;;27.10;42.81
74798;BME280;63326;45.088;7.658;2023-09-30T09:51:05;99420.00;;;29.49;39.25
74798;BME280;63326;45.088;7.658;2023-09-30T09:53:35;99353.22;;;30.36;36.08
74798;BME280;63326;45.088;7.658;2023-09-30T09:56:08;99369.03;;;31.15;35.60
74798;BME280;63326;45.088;7.658;2023-09-30T09:58:36;99394.69;;;31.53;34.74
74798;BME280;63326;45.088;7.658;2023-09-30T10:01:07;99406.22;;;32.10;33.74
74798;BME280;63326;45.088;7.658;2023-09-30T10:03:38;99403.59;;;31.77;34.21
74798;BME280;63326;45.088;7.658;2023-09-30T10:06:06;99401.72;;;30.52;35.91
74798;BME280;63326;45.088;7.658;2023-09-30T10:08:40;99413.94;;;31.03;35.47
74798;BME280;63326;45.088;7.658;2023-09-30T10:11:16;99375.69;;;29.97;36.83
74798;BME280;63326;45.088;7.658;2023-09-30T10:19:12;99379.81;;;31.16;35.16
74798;BME280;63326;45.088;7.658;2023-09-30T10:21:39;99406.88;;;31.24;34.96
74798;BME280;63326;45.088;7.658;2023-09-30T10:35:41;99384.78;;;31.74;33.03
74798;BME280;63326;45.088;7.658;2023-09-30T10:40:53;99370.69;;;30.69;33.31
74798;BME280;63326;45.088;7.658;2023-09-30T10:43:33;99372.94;;;28.72;37.49
74798;BME280;63326;45.088;7.658;2023-09-30T10:46:03;99348.75;;;30.54;34.50
74798;BME280;63326;45.088;7.658;2023-09-30T10:48:39;99320.25;;;30.35;34.71
74798;BME280;63326;45.088;7.658;2023-09-30T10:51:13;99307.03;;;30.13;34.12
74798;BME280;63326;45.088;7.658;2023-09-30T10:53:52;99244.16;;;29.19;35.10
74798;BME280;63326;45.088;7.658;2023-09-30T10:56:19;99370.72;;;29.94;34.71
74798;BME280;63326;45.088;7.658;2023-09-30T11:01:17;99338.78;;;27.15;39.60
74798;BME280;63326;45.088;7.658;2023-09-30T11:03:45;99358.06;;;27.20;40.37
74798;BME280;63326;45.088;7.658;2023-09-30T11:06:13;99364.28;;;28.11;38.66
74798;BME280;63326;45.088;7.658;2023-09-30T11:08:59;99327.31;;;28.41;37.97
74798;BME280;63326;45.088;7.658;2023-09-30T11:11:40;99363.69;;;28.87;37.65
74798;BME280;63326;45.088;7.658;2023-09-30T11:14:30;99357.25;;;28.92;37.28
74798;BME280;63326;45.088;7.658;2023-09-30T11:16:59;99352.66;;;29.59;36.48
74798;BME280;63326;45.088;7.658;2023-09-30T11:19:28;99311.41;;;28.62;37.81
74798;BME280;63326;45.088;7.658;2023-09-30T11:22:00;99284.50;;;28.72;36.75
74798;BME280;63326;45.088;7.658;2023-09-30T11:24:27;99311.88;;;29.22;35.47
74798;BME280;63326;45.088;7.658;2023-09-30T11:26:55;99332.81;;;29.52;35.22
74798;BME280;63326;45.088;7.658;2023-09-30T11:29:22;99266.06;;;29.16;35.80
74798;BME280;63326;45.088;7.658;2023-09-30T11:31:49;99290.63;;;29.41;35.17
74798;BME280;63326;45.088;7.658;2023-09-30T11:34:18;99270.03;;;28.80;36.09
74798;BME280;63326;45.088;7.658;2023-09-30T11:36:52;99257.91;;;29.00;34.96
74798;BME280;63326;45.088;7.658;2023-09-30T11:39:22;99316.72;;;29.35;35.61
74798;BME280;63326;45.088;7.658;2023-09-30T11:41:50;99255.56;;;29.13;34.71
74798;BME280;63326;45.088;7.658;2023-09-30T11:44:17;99266.41;;;29.09;34.88
74798;BME280;63326;45.088;7.658;2023-09-30T11:51:58;99260.09;;;28.56;35.79
74798;BME280;63326;45.088;7.658;2023-09-30T11:54:30;99270.81;;;28.86;35.77
74798;BME280;63326;45.088;7.658;2023-09-30T11:57:00;99296.72;;;28.66;35.92
74798;BME280;63326;45.088;7.658;2023-09-30T11:59:27;99269.13;;;28.61;35.83
74798;BME280;63326;45.088;7.658;2023-09-30T12:01:54;99291.06;;;29.05;35.95
74798;BME280;63326;45.088;7.658;2023-09-30T12:04:38;99316.91;;;29.20;35.70
74798;BME280;63326;45.088;7.658;2023-09-30T12:07:05;99316.56;;;28.73;36.53
74798;BME280;63326;45.088;7.658;2023-09-30T12:09:36;99321.31;;;28.34;37.67
74798;BME280;63326;45.088;7.658;2023-09-30T12:12:05;99268.44;;;28.16;37.78
74798;BME280;63326;45.088;7.658;2023-09-30T12:14:37;99262.28;;;28.24;36.99
74798;BME280;63326;45.088;7.658;2023-09-30T12:17:03;99266.94;;;28.29;36.84
74798;BME280;63326;45.088;7.658;2023-09-30T12:19:31;99248.09;;;28.36;37.44
74798;BME280;63326;45.088;7.658;2023-09-30T12:21:58;99258.53;;;28.44;36.98
74798;BME280;63326;45.088;7.658;2023-09-30T12:24:25;99296.94;;;28.41;37.94
74798;BME280;63326;45.088;7.658;2023-09-30T12:26:54;99277.56;;;28.12;37.83
74798;BME280;63326;45.088;7.658;2023-09-30T12:29:22;99264.94;;;28.06;37.71
74798;BME280;63326;45.088;7.658;2023-09-30T12:31:52;99287.34;;;28.33;37.68
74798;BME280;63326;45.088;7.658;2023-09-30T12:34:21;99231.00;;;28.05;37.60
74798;BME280;63326;45.088;7.658;2023-09-30T12:36:54;99281.97;;;28.47;36.85
74798;BME280;63326;45.088;7.658;2023-09-30T12:39:25;99281.59;;;28.59;36.73
74798;BME280;63326;45.088;7.658;2023-09-30T12:41:53;99225.38;;;28.15;36.92
74798;BME280;63326;45.088;7.658;2023-09-30T12:44:20;99279.03;;;28.67;36.58
74798;BME280;63326;45.088;7.658;2023-09-30T12:46:51;99251.69;;;27.63;37.69
74798;BME280;63326;45.088;7.658;2023-09-30T12:49:18;99217.69;;;27.34;38.50
74798;BME280;63326;45.088;7.658;2023-09-30T12:51:45;99251.88;;;27.77;37.75
74798;BME280;63326;45.088;7.658;2023-09-30T12:54:13;99218.91;;;27.57;38.16
74798;BME280;63326;45.088;7.658;2023-09-30T12:56:41;99268.53;;;27.62;38.49
74798;BME280;63326;45.088;7.658;2023-09-30T12:59:08;99232.25;;;27.39;38.47
74798;BME280;63326;45.088;7.658;2023-09-30T13:01:35;99223.81;;;27.16;37.89
74798;BME280;63326;45.088;7.658;2023-09-30T13:04:02;99262.66;;;27.74;38.06
74798;BME280;63326;45.088;7.658;2023-09-30T13:06:29;99222.31;;;27.83;37.47
74798;BME280;63326;45.088;7.658;2023-09-30T13:08:59;99194.59;;;27.98;36.94
74798;BME280;63326;45.088;7.658;2023-09-30T13:11:26;99203.25;;;27.81;37.14
74798;BME280;63326;45.088;7.658;2023-09-30T13:13:53;99255.56;;;28.36;36.50
74798;BME280;63326;45.088;7.658;2023-09-30T13:16:21;99255.16;;;28.47;36.64
74798;BME280;63326;45.088;7.658;2023-09-30T13:18:49;99243.41;;;28.66;36.07
74798;BME280;63326;45.088;7.658;2023-09-30T13:21:19;99209.97;;;28.62;35.41
74798;BME280;63326;45.088;7.658;2023-09-30T13:23:46;99221.34;;;28.61;35.66
74798;BME280;63326;45.088;7.658;2023-09-30T13:26:14;99167.56;;;28.24;36.34
74798;BME280;63326;45.088;7.658;2023-09-30T13:28:41;99189.16;;;28.46;35.69
74798;BME280;63326;45.088;7.658;2023-09-30T13:31:09;99215.81;;;28.61;36.35
74798;BME280;63326;45.088;7.658;2023-09-30T13:33:37;99115.94;;;28.24;35.62